Portada
METAR-TAF:

METAR-TAF

Aeroports :

Bangkok, Tailàndia

latitud: 13-54-45N, longitud: 100-36-24E, altitud: 4 m

Observació

L'informe es va fer fa 44 minuts, a les 17:00 UTC
Vent 5 kt del Est, variant entre Est/Nord-Est i Est/Sud-Est
Temperatura 30°C
Humitat 75%
Pressió 1013 hPa
Visibilitat: 9000 m
Escasses núvols a una alçada de 2000 ft

METAR: VTBD 191700Z 09005KT 060V120 9000 FEW020 30/25 Q1013 NOSIG

Hora: 00:44 (17:44 UTC)

Pronòstic

L'informe es va fer fa 6 hores i 44 minuts, a les 11:00 UTC
Pronòstic vàlid del 19 a les 12 UTC al 20 a les 18 UTC
Vent 8 kt del Est/Nord-Est
Visibilitat 10 km o més
Escasses núvols a una alçada de 2000 ft
Evolucionant progressivament
l' 19 a les 17 UTC al 19 a les 19 UTC
Vent 5 kt del Nord
Evolucionant progressivament
l' 20 a les 00 UTC al 20 a les 02 UTC
Vent 8 kt del Est/Nord-Est

TAF: VTBD 191100Z 1912/2018 06008KT 9999 FEW020 BECMG 1917/1919 35005KT BECMG 2000/2002 06008KT

Observacions i pronòstics meteorològics de més de 4000 aeroports (METAR i TAF).

Les estacions disponibles són els punts grocs i vermells al mapa.

Posi el ratolí al punt desitjat per veure el nom de l'estació.

Feu clic per veure les observacions i els pronòstics meteorològics.

Per canviar el mapa: feu clic els botons verds amb una creu de color negre per apropar; al botó verd amb un guió per allunyar la imatge; o en les fletxes verdes per a mapes adjacents.


METAR-TAF: